createdAt,value
2017-02-08T00:00:10.650Z,0
2017-02-08T00:01:21.233Z,0
2017-02-08T00:02:31.195Z,0
2017-02-08T00:03:41.930Z,0
2017-02-08T00:04:51.878Z,0
2017-02-08T00:06:02.233Z,0
2017-02-08T00:07:12.584Z,0
2017-02-08T00:08:22.151Z,0
2017-02-08T00:09:32.490Z,0
2017-02-08T00:10:43.241Z,0
2017-02-08T00:11:53.977Z,0
2017-02-08T00:13:04.755Z,0
2017-02-08T00:14:15.482Z,0
2017-02-08T00:15:26.235Z,0
2017-02-08T00:16:37.000Z,0
2017-02-08T00:17:47.349Z,0
2017-02-08T00:18:58.095Z,0
2017-02-08T00:20:08.841Z,0
2017-02-08T00:21:19.591Z,0
2017-02-08T00:22:30.336Z,0
2017-02-08T00:23:40.712Z,0
2017-02-08T00:24:51.066Z,0
2017-02-08T00:26:01.416Z,0
2017-02-08T00:27:11.760Z,0
2017-02-08T00:28:22.498Z,0
2017-02-08T00:29:32.854Z,0
2017-02-08T00:30:43.214Z,0
2017-02-08T00:31:53.966Z,0
2017-02-08T00:33:04.969Z,0
2017-02-08T00:34:15.313Z,0
2017-02-08T00:35:26.102Z,0
2017-02-08T00:36:35.664Z,0
2017-02-08T00:37:46.391Z,0
2017-02-08T00:38:56.346Z,0
2017-02-08T00:40:06.695Z,0
2017-02-08T00:41:17.425Z,0
2017-02-08T00:42:28.175Z,0
2017-02-08T00:43:38.920Z,0
2017-02-08T00:44:49.269Z,0
2017-02-08T00:46:00.019Z,0
2017-02-08T00:47:10.377Z,0
2017-02-08T00:48:20.738Z,0
2017-02-08T00:49:31.498Z,0
2017-02-08T00:50:42.245Z,0
2017-02-08T00:51:53.000Z,0
2017-02-08T00:53:03.385Z,0
2017-02-08T00:54:14.130Z,0
2017-02-08T00:55:24.470Z,0
2017-02-08T00:56:34.806Z,0
2017-02-08T00:57:45.541Z,0
2017-02-08T00:58:55.901Z,0
2017-02-08T01:00:06.640Z,0
2017-02-08T01:01:17.381Z,0
2017-02-08T01:02:27.742Z,0
2017-02-08T01:03:38.494Z,0
2017-02-08T01:04:49.245Z,0
2017-02-08T01:05:59.205Z,0
2017-02-08T01:07:09.563Z,0
2017-02-08T01:08:19.910Z,0
2017-02-08T01:09:30.307Z,0
2017-02-08T01:10:40.259Z,0
2017-02-08T01:11:50.981Z,0
2017-02-08T01:13:00.944Z,0
2017-02-08T01:14:11.699Z,0
2017-02-08T01:15:22.440Z,0
2017-02-08T01:16:33.171Z,0
2017-02-08T01:17:43.538Z,0
2017-02-08T01:18:54.267Z,0
2017-02-08T01:20:05.043Z,0
2017-02-08T01:21:15.775Z,0
2017-02-08T01:22:25.726Z,0
2017-02-08T01:23:36.468Z,0
2017-02-08T01:24:46.806Z,0
2017-02-08T01:25:57.151Z,0
2017-02-08T01:27:07.495Z,0
2017-02-08T01:28:17.840Z,0
2017-02-08T01:29:28.201Z,0
2017-02-08T01:30:38.148Z,0
2017-02-08T01:31:48.504Z,0
2017-02-08T01:32:58.854Z,0
2017-02-08T01:34:09.607Z,0
2017-02-08T01:35:19.996Z,0
2017-02-08T01:36:30.591Z,0
2017-02-08T01:37:40.547Z,0
2017-02-08T01:38:51.283Z,0
2017-02-08T01:40:01.633Z,0
2017-02-08T01:41:11.983Z,0
2017-02-08T01:42:22.327Z,0
2017-02-08T01:43:33.076Z,0
2017-02-08T01:44:43.427Z,0
2017-02-08T01:45:54.163Z,0
2017-02-08T01:47:04.130Z,0
2017-02-08T01:48:14.868Z,0
2017-02-08T01:49:25.200Z,0
2017-02-08T01:50:35.947Z,0
2017-02-08T01:51:46.691Z,0
2017-02-08T01:52:56.681Z,0
2017-02-08T01:54:07.075Z,0
2017-02-08T01:55:17.432Z,0
2017-02-08T01:56:27.770Z,0
2017-02-08T01:57:38.523Z,0
2017-02-08T01:58:49.255Z,0
2017-02-08T01:59:59.994Z,0
2017-02-08T02:01:09.541Z,0
2017-02-08T02:02:20.278Z,0
2017-02-08T02:03:30.615Z,0
2017-02-08T02:04:40.166Z,0
2017-02-08T02:05:50.125Z,0
2017-02-08T02:07:00.470Z,0
2017-02-08T02:08:10.017Z,0
2017-02-08T02:09:20.765Z,0
2017-02-08T02:10:31.524Z,0
2017-02-08T02:11:41.873Z,0
2017-02-08T02:12:52.623Z,0
2017-02-08T02:14:02.187Z,0
2017-02-08T02:15:12.945Z,0
2017-02-08T02:16:23.319Z,0
2017-02-08T02:17:34.069Z,0
2017-02-08T02:18:44.813Z,0
2017-02-08T02:19:55.162Z,0
2017-02-08T02:21:05.511Z,0
2017-02-08T02:22:15.471Z,0
2017-02-08T02:23:26.223Z,0
2017-02-08T02:24:36.181Z,0
2017-02-08T02:25:46.530Z,0
2017-02-08T02:26:56.866Z,0
2017-02-08T02:28:07.615Z,0
2017-02-08T02:29:17.967Z,0
2017-02-08T02:30:28.704Z,0
2017-02-08T02:31:39.484Z,0
2017-02-08T02:32:50.255Z,0
2017-02-08T02:33:59.824Z,0
2017-02-08T02:35:09.770Z,0
2017-02-08T02:36:19.733Z,0
2017-02-08T02:37:30.088Z,0
2017-02-08T02:38:40.436Z,0
2017-02-08T02:39:50.391Z,0
2017-02-08T02:41:01.136Z,0
2017-02-08T02:42:11.487Z,0
2017-02-08T02:43:22.218Z,0
2017-02-08T02:44:32.968Z,0
2017-02-08T02:45:43.351Z,0
2017-02-08T02:46:54.092Z,0
2017-02-08T02:48:04.853Z,0
2017-02-08T02:49:15.194Z,0
2017-02-08T02:50:25.539Z,0
2017-02-08T02:51:36.278Z,0
2017-02-08T02:52:46.615Z,0
2017-02-08T02:53:57.350Z,0
2017-02-08T02:55:07.294Z,0
2017-02-08T02:56:17.635Z,0
2017-02-08T02:57:28.368Z,0
2017-02-08T02:58:38.748Z,0
2017-02-08T02:59:49.504Z,0
2017-02-08T03:01:00.240Z,0
2017-02-08T03:32:30.045Z,0
2017-02-08T03:33:40.785Z,0
2017-02-08T03:34:51.515Z,0
2017-02-08T03:36:02.251Z,0
2017-02-08T03:37:12.595Z,0
2017-02-08T03:38:22.953Z,0
2017-02-08T03:39:33.687Z,0
2017-02-08T03:40:43.637Z,0
2017-02-08T03:41:54.371Z,0
2017-02-08T03:43:04.724Z,0
2017-02-08T03:44:15.061Z,0
2017-02-08T03:45:25.010Z,0
2017-02-08T03:46:34.956Z,0
2017-02-08T03:47:45.690Z,0
2017-02-08T03:48:56.032Z,0
2017-02-08T03:50:06.396Z,0
2017-02-08T03:51:17.141Z,0
2017-02-08T03:52:27.481Z,0
2017-02-08T03:53:37.827Z,0
2017-02-08T03:54:48.185Z,0
2017-02-08T03:55:58.541Z,0
2017-02-08T03:57:08.496Z,0
2017-02-08T03:58:19.236Z,0
2017-02-08T03:59:29.979Z,0
2017-02-08T04:00:40.329Z,0
2017-02-08T04:01:51.062Z,0
2017-02-08T04:03:01.013Z,0
2017-02-08T04:04:11.762Z,0
2017-02-08T04:05:22.158Z,0
2017-02-08T04:06:32.908Z,0
2017-02-08T04:07:43.644Z,0
2017-02-08T04:08:54.619Z,0
2017-02-08T04:10:05.358Z,0
2017-02-08T04:11:16.102Z,0
2017-02-08T04:12:26.828Z,0
2017-02-08T04:13:37.577Z,0
2017-02-08T04:14:48.314Z,0
2017-02-08T04:15:58.664Z,0
2017-02-08T04:17:09.018Z,0
2017-02-08T04:18:19.764Z,0
2017-02-08T04:19:29.715Z,0
2017-02-08T04:20:40.462Z,0
2017-02-08T04:21:51.198Z,0
2017-02-08T04:23:01.962Z,0
2017-02-08T04:24:12.707Z,0
2017-02-08T04:25:23.436Z,0
2017-02-08T04:26:34.181Z,0
2017-02-08T04:27:44.927Z,0
2017-02-08T04:28:55.278Z,0
2017-02-08T04:30:06.028Z,0
2017-02-08T04:31:16.781Z,0
2017-02-08T04:32:27.129Z,0
2017-02-08T04:33:38.074Z,0
2017-02-08T04:34:48.816Z,0
2017-02-08T04:35:59.178Z,0
2017-02-08T04:37:09.139Z,0
2017-02-08T04:38:19.897Z,0
2017-02-08T04:39:30.242Z,0
2017-02-08T04:40:40.989Z,0
2017-02-08T04:41:51.336Z,0
2017-02-08T04:43:02.094Z,0
2017-02-08T04:44:12.836Z,0
2017-02-08T04:45:23.827Z,0
2017-02-08T04:46:34.580Z,0
2017-02-08T04:47:45.317Z,0
2017-02-08T04:48:56.058Z,0
2017-02-08T04:50:06.417Z,0
2017-02-08T04:51:17.159Z,0
2017-02-08T04:52:27.907Z,0
2017-02-08T04:53:38.254Z,0
2017-02-08T04:54:48.596Z,0
2017-02-08T04:55:59.587Z,0
2017-02-08T04:57:09.939Z,0
2017-02-08T04:58:20.290Z,0
2017-02-08T04:59:31.037Z,0
2017-02-08T05:00:41.775Z,0
2017-02-08T05:01:52.519Z,0
2017-02-08T05:03:03.256Z,0
2017-02-08T05:04:13.605Z,0
2017-02-08T05:05:23.958Z,0
2017-02-08T05:06:34.703Z,0
2017-02-08T05:07:45.048Z,0
2017-02-08T05:08:55.392Z,0
2017-02-08T05:10:06.373Z,0
2017-02-08T05:11:17.110Z,0
2017-02-08T05:12:27.850Z,0
2017-02-08T05:13:38.589Z,0
2017-02-08T05:14:49.332Z,0
2017-02-08T05:16:00.071Z,0
2017-02-08T05:17:10.809Z,0
2017-02-08T05:18:21.159Z,0
2017-02-08T05:19:31.525Z,0
2017-02-08T05:20:42.261Z,0
2017-02-08T05:21:52.625Z,0
2017-02-08T05:23:03.387Z,0
2017-02-08T05:24:14.114Z,0
2017-02-08T05:25:24.857Z,0
2017-02-08T05:26:35.604Z,0
2017-02-08T05:27:46.349Z,0
2017-02-08T05:28:57.094Z,0
2017-02-08T05:30:07.834Z,0
2017-02-08T05:31:18.182Z,0
2017-02-08T05:32:28.929Z,0
2017-02-08T05:33:39.276Z,0
2017-02-08T05:34:48.834Z,0
2017-02-08T05:35:59.579Z,0
2017-02-08T05:37:09.912Z,0
2017-02-08T05:38:19.870Z,0
2017-02-08T05:39:30.616Z,0
2017-02-08T05:40:40.983Z,0
2017-02-08T05:41:51.726Z,0
2017-02-08T05:43:02.493Z,0
2017-02-08T05:44:13.243Z,0
2017-02-08T05:45:23.198Z,0
2017-02-08T05:46:33.934Z,0
2017-02-08T05:47:44.285Z,0
2017-02-08T05:48:55.022Z,0
2017-02-08T05:50:05.770Z,0
2017-02-08T05:51:16.514Z,0
2017-02-08T05:52:27.244Z,0
2017-02-08T05:53:38.008Z,0
2017-02-08T05:54:48.758Z,0
2017-02-08T05:55:59.500Z,0
2017-02-08T05:57:10.244Z,0
2017-02-08T05:58:20.994Z,0
2017-02-08T05:59:31.742Z,0
2017-02-08T06:00:42.078Z,0
2017-02-08T06:01:52.820Z,0
2017-02-08T06:03:03.566Z,0
2017-02-08T06:04:14.031Z,0
2017-02-08T06:05:24.776Z,0
2017-02-08T06:06:35.522Z,0
2017-02-08T06:07:46.258Z,0
2017-02-08T06:08:56.609Z,0
2017-02-08T06:10:06.950Z,0
2017-02-08T06:11:16.911Z,0
2017-02-08T06:12:27.651Z,0
2017-02-08T06:13:38.405Z,0
2017-02-08T06:14:48.743Z,0
2017-02-08T06:15:59.498Z,0
2017-02-08T06:17:10.238Z,0
2017-02-08T06:18:20.592Z,0
2017-02-08T06:19:31.330Z,0
2017-02-08T06:20:42.090Z,0
2017-02-08T06:21:52.844Z,0
2017-02-08T06:23:03.587Z,0
2017-02-08T06:24:14.347Z,0
2017-02-08T06:25:24.302Z,5
2017-02-08T06:26:35.251Z,5
2017-02-08T06:27:45.992Z,5
2017-02-08T06:28:56.334Z,5
2017-02-08T06:30:06.275Z,5
2017-02-08T06:31:16.617Z,5
2017-02-08T06:32:27.355Z,5
2017-02-08T06:33:37.307Z,5
2017-02-08T06:34:48.081Z,5
2017-02-08T06:35:58.831Z,5
2017-02-08T06:37:09.186Z,5
2017-02-08T06:38:19.543Z,5
2017-02-08T06:39:30.286Z,5
2017-02-08T06:40:41.037Z,5
2017-02-08T06:41:51.765Z,5
2017-02-08T06:43:02.100Z,5
2017-02-08T06:44:12.841Z,10
2017-02-08T06:45:23.579Z,5
2017-02-08T06:46:33.945Z,10
2017-02-08T06:47:44.691Z,10
2017-02-08T06:48:55.435Z,10
2017-02-08T06:50:06.186Z,10
2017-02-08T06:51:16.960Z,10
2017-02-08T06:52:27.358Z,10
2017-02-08T06:53:38.123Z,10
2017-02-08T06:54:48.479Z,10
2017-02-08T06:55:59.240Z,10
2017-02-08T06:57:09.598Z,10
2017-02-08T06:58:19.956Z,10
2017-02-08T06:59:29.908Z,15
2017-02-08T07:00:40.678Z,15
2017-02-08T07:01:51.414Z,15
2017-02-08T07:03:02.169Z,15
2017-02-08T07:04:12.507Z,15
2017-02-08T07:05:23.256Z,20
2017-02-08T07:06:33.996Z,20
2017-02-08T07:07:44.737Z,20
2017-02-08T07:08:55.506Z,20
2017-02-08T07:10:06.283Z,20
2017-02-08T07:11:16.628Z,20
2017-02-08T07:12:27.372Z,20
2017-02-08T07:13:38.127Z,20
2017-02-08T07:14:48.493Z,20
2017-02-08T07:15:59.223Z,25
2017-02-08T07:17:09.960Z,25
2017-02-08T07:18:20.698Z,25
2017-02-08T07:19:31.465Z,25
2017-02-08T07:20:42.209Z,25
2017-02-08T07:21:52.563Z,25
2017-02-08T07:23:02.917Z,25
2017-02-08T07:24:13.660Z,25
2017-02-08T07:25:24.399Z,25
2017-02-08T07:26:35.154Z,25
2017-02-08T07:27:45.901Z,30
2017-02-08T07:28:55.864Z,30
2017-02-08T07:30:06.601Z,30
2017-02-08T07:31:16.950Z,30
2017-02-08T07:32:27.692Z,35
2017-02-08T07:33:38.031Z,35
2017-02-08T07:34:48.839Z,40
2017-02-08T07:35:59.576Z,45
2017-02-08T07:37:09.938Z,45
2017-02-08T07:38:20.305Z,45
2017-02-08T07:39:30.656Z,45
2017-02-08T07:40:41.399Z,45
2017-02-08T07:41:51.761Z,50
2017-02-08T07:43:02.537Z,50
2017-02-08T07:44:13.287Z,55
2017-02-08T07:45:24.086Z,60
2017-02-08T07:46:34.826Z,65
2017-02-08T07:47:45.168Z,65
2017-02-08T07:48:55.531Z,65
2017-02-08T07:50:05.499Z,70
2017-02-08T07:51:16.258Z,75
2017-02-08T07:52:26.992Z,75
2017-02-08T07:53:37.344Z,80
2017-02-08T07:54:48.092Z,75
2017-02-08T07:55:58.834Z,75
2017-02-08T07:57:09.574Z,75
2017-02-08T07:58:20.329Z,80
2017-02-08T07:59:30.677Z,90
2017-02-08T08:00:41.416Z,95
2017-02-08T08:01:52.165Z,100
2017-02-08T08:03:02.546Z,105
2017-02-08T08:04:13.297Z,105
2017-02-08T08:05:24.087Z,105
2017-02-08T08:06:35.013Z,105
2017-02-08T08:07:44.958Z,105
2017-02-08T08:08:55.289Z,110
2017-02-08T08:10:06.031Z,115
2017-02-08T08:11:16.388Z,115
2017-02-08T08:12:27.139Z,110
2017-02-08T08:13:37.494Z,105
2017-02-08T08:14:48.236Z,95
2017-02-08T08:15:58.993Z,90
2017-02-08T08:17:09.748Z,85
2017-02-08T08:18:20.502Z,85
2017-02-08T08:19:31.268Z,80
2017-02-08T08:20:41.602Z,80
2017-02-08T08:21:51.594Z,80
2017-02-08T08:23:02.386Z,80
2017-02-08T08:24:13.131Z,80
2017-02-08T08:25:23.517Z,80
2017-02-08T08:26:34.265Z,75
2017-02-08T08:27:44.616Z,75
2017-02-08T08:28:55.351Z,75
2017-02-08T08:30:06.086Z,75
2017-02-08T08:31:16.859Z,75
2017-02-08T08:32:27.598Z,80
2017-02-08T08:33:37.947Z,80
2017-02-08T08:34:48.695Z,85
2017-02-08T08:35:59.051Z,80
2017-02-08T08:37:09.782Z,80
2017-02-08T08:38:20.541Z,80
2017-02-08T08:39:31.293Z,85
2017-02-08T08:40:42.073Z,80
2017-02-08T08:41:52.829Z,85
2017-02-08T08:43:03.184Z,75
2017-02-08T08:44:13.931Z,75
2017-02-08T08:45:24.666Z,70
2017-02-08T08:46:35.395Z,75
2017-02-08T08:47:46.138Z,75
2017-02-08T08:48:56.510Z,75
2017-02-08T08:50:07.288Z,80
2017-02-08T08:51:17.255Z,80
2017-02-08T08:52:27.999Z,80
2017-02-08T08:53:38.352Z,85
2017-02-08T08:54:49.128Z,85
2017-02-08T08:55:59.872Z,85
2017-02-08T08:57:10.622Z,90
2017-02-08T08:58:20.972Z,90
2017-02-08T08:59:31.332Z,90
2017-02-08T09:00:42.094Z,90
2017-02-08T09:01:52.850Z,90
2017-02-08T09:03:03.197Z,90
2017-02-08T09:04:13.941Z,85
2017-02-08T09:05:24.688Z,85
2017-02-08T09:06:35.422Z,90
2017-02-08T09:07:45.386Z,95
2017-02-08T09:08:56.159Z,100
2017-02-08T09:10:06.922Z,110
2017-02-08T09:11:17.664Z,120
2017-02-08T09:12:28.415Z,115
2017-02-08T09:13:38.766Z,115
2017-02-08T09:14:49.513Z,115
2017-02-08T09:15:59.867Z,120
2017-02-08T09:17:10.634Z,120
2017-02-08T09:18:20.979Z,125
2017-02-08T09:19:31.717Z,125
2017-02-08T09:20:42.493Z,125
2017-02-08T09:21:53.238Z,125
2017-02-08T09:23:03.596Z,125
2017-02-08T09:24:14.569Z,125
2017-02-08T09:25:25.321Z,120
2017-02-08T09:26:36.064Z,110
2017-02-08T09:27:46.808Z,110
2017-02-08T09:28:57.572Z,115
2017-02-08T09:30:08.312Z,120
2017-02-08T09:31:19.053Z,120
2017-02-08T09:32:29.790Z,120
2017-02-08T09:33:40.520Z,125
2017-02-08T09:34:51.264Z,125
2017-02-08T09:36:01.619Z,130
2017-02-08T09:37:12.341Z,135
2017-02-08T09:38:22.694Z,130
2017-02-08T09:39:33.456Z,135
2017-02-08T09:40:44.208Z,135
2017-02-08T09:41:54.558Z,125
2017-02-08T09:43:04.916Z,120
2017-02-08T09:44:15.261Z,115
2017-02-08T09:45:26.007Z,115
2017-02-08T09:46:36.767Z,110
2017-02-08T09:47:47.113Z,105
2017-02-08T09:48:57.471Z,105
2017-02-08T09:50:08.220Z,100
2017-02-08T09:51:18.180Z,105
2017-02-08T09:52:28.926Z,110
2017-02-08T09:53:39.308Z,115
2017-02-08T09:54:49.669Z,120
2017-02-08T09:56:00.016Z,120
2017-02-08T09:57:10.769Z,120
2017-02-08T09:58:21.507Z,115
2017-02-08T09:59:32.254Z,115
2017-02-08T10:00:42.987Z,115
2017-02-08T10:01:52.971Z,115
2017-02-08T10:03:03.732Z,120
2017-02-08T10:04:14.493Z,120
2017-02-08T10:05:24.835Z,120
2017-02-08T10:06:35.588Z,130
2017-02-08T10:07:46.328Z,125
2017-02-08T10:08:57.081Z,130
2017-02-08T10:10:07.837Z,135
2017-02-08T10:11:18.203Z,145
2017-02-08T10:12:28.952Z,135
2017-02-08T10:13:39.299Z,130
2017-02-08T10:14:49.648Z,120
2017-02-08T10:16:00.382Z,110
2017-02-08T10:17:11.140Z,100
2017-02-08T10:18:21.895Z,100
2017-02-08T10:19:32.243Z,115
2017-02-08T10:20:42.999Z,105
2017-02-08T10:21:53.344Z,100
2017-02-08T10:23:04.178Z,100
2017-02-08T10:24:14.948Z,90
2017-02-08T10:25:25.699Z,90
2017-02-08T10:26:36.439Z,90
2017-02-08T10:27:47.187Z,90
2017-02-08T10:28:57.930Z,90
2017-02-08T10:30:08.280Z,90
2017-02-08T10:31:18.644Z,80
2017-02-08T10:32:29.410Z,75
2017-02-08T10:33:40.151Z,70
2017-02-08T10:34:50.913Z,75
2017-02-08T10:36:01.696Z,75
2017-02-08T10:37:12.083Z,85
2017-02-08T10:38:22.844Z,90
2017-02-08T10:39:33.206Z,95
2017-02-08T10:40:43.164Z,100
2017-02-08T10:41:53.574Z,110
2017-02-08T10:43:04.337Z,110
2017-02-08T10:44:14.687Z,110
2017-02-08T10:45:25.430Z,115
2017-02-08T10:46:35.787Z,125
2017-02-08T10:47:46.139Z,130
2017-02-08T10:48:56.891Z,130
2017-02-08T10:50:07.636Z,125
2017-02-08T10:51:17.992Z,125
2017-02-08T10:52:28.330Z,125
2017-02-08T10:53:39.061Z,125
2017-02-08T10:54:49.839Z,125
2017-02-08T10:56:00.588Z,120
2017-02-08T10:57:11.340Z,120
2017-02-08T10:58:21.685Z,110
2017-02-08T10:59:32.429Z,110
2017-02-08T11:00:42.383Z,110
2017-02-08T11:01:52.737Z,110
2017-02-08T11:03:03.080Z,105
2017-02-08T11:04:13.835Z,100
2017-02-08T11:05:24.584Z,100
2017-02-08T11:06:34.941Z,95
2017-02-08T11:07:45.684Z,95
2017-02-08T11:08:56.430Z,95
2017-02-08T11:10:07.193Z,90
2017-02-08T11:11:17.950Z,90
2017-02-08T11:12:28.306Z,90
2017-02-08T11:13:38.692Z,85
2017-02-08T11:14:49.441Z,85
2017-02-08T11:16:00.185Z,85
2017-02-08T11:17:10.950Z,85
2017-02-08T11:18:21.309Z,85
2017-02-08T11:19:31.270Z,85
2017-02-08T11:20:41.627Z,85
2017-02-08T11:21:52.412Z,85
2017-02-08T11:23:02.793Z,85
2017-02-08T11:24:13.793Z,85
2017-02-08T11:25:24.561Z,85
2017-02-08T11:26:35.325Z,85
2017-02-08T11:27:45.680Z,85
2017-02-08T11:28:56.030Z,90
2017-02-08T11:30:06.792Z,90
2017-02-08T11:31:17.532Z,85
2017-02-08T11:32:27.880Z,85
2017-02-08T11:33:38.624Z,85
2017-02-08T11:34:49.378Z,90
2017-02-08T11:36:00.124Z,90
2017-02-08T11:37:10.482Z,90
2017-02-08T11:38:21.232Z,95
2017-02-08T11:39:31.584Z,100
2017-02-08T11:40:42.172Z,100
2017-02-08T11:41:52.908Z,105
2017-02-08T11:43:03.257Z,105
2017-02-08T11:44:14.001Z,100
2017-02-08T11:45:24.744Z,100
2017-02-08T11:46:35.487Z,100
2017-02-08T11:47:46.238Z,100
2017-02-08T11:48:56.994Z,100
2017-02-08T11:50:07.328Z,100
2017-02-08T11:51:18.112Z,100
2017-02-08T11:52:27.679Z,105
2017-02-08T11:53:38.421Z,110
2017-02-08T11:54:48.763Z,110
2017-02-08T11:55:59.501Z,105
2017-02-08T11:57:10.457Z,100
2017-02-08T11:58:21.197Z,100
2017-02-08T11:59:31.963Z,100
2017-02-08T12:00:42.307Z,95
2017-02-08T12:01:53.055Z,95
2017-02-08T12:03:03.404Z,100
2017-02-08T12:04:14.161Z,100
2017-02-08T12:05:24.908Z,100
2017-02-08T12:06:35.665Z,95
2017-02-08T12:07:46.407Z,100
2017-02-08T12:08:57.149Z,105
2017-02-08T12:10:07.478Z,105
2017-02-08T12:11:17.848Z,110
2017-02-08T12:12:28.207Z,110
2017-02-08T12:13:38.979Z,105
2017-02-08T12:14:49.716Z,100
2017-02-08T12:16:00.454Z,105
2017-02-08T12:17:10.826Z,115
2017-02-08T12:18:21.581Z,110
2017-02-08T12:19:31.918Z,115
2017-02-08T12:20:42.703Z,115
2017-02-08T12:21:53.467Z,120
2017-02-08T12:23:04.232Z,120
2017-02-08T12:24:14.990Z,120
2017-02-08T12:25:25.984Z,120
2017-02-08T12:26:36.736Z,120
2017-02-08T12:27:47.490Z,120
2017-02-08T12:28:58.227Z,115
2017-02-08T12:30:07.786Z,115
2017-02-08T12:31:18.140Z,120
2017-02-08T12:32:28.477Z,120
2017-02-08T12:33:39.212Z,120
2017-02-08T12:34:49.178Z,120
2017-02-08T12:35:59.937Z,110
2017-02-08T12:37:10.714Z,105
2017-02-08T12:38:21.482Z,105
2017-02-08T12:39:31.829Z,105
2017-02-08T12:40:42.585Z,105
2017-02-08T12:41:53.355Z,110
2017-02-08T12:43:04.114Z,115
2017-02-08T12:44:14.867Z,120
2017-02-08T12:45:25.605Z,140
2017-02-08T12:46:35.546Z,155
2017-02-08T12:47:45.918Z,155
2017-02-08T12:48:56.256Z,155
2017-02-08T12:50:07.008Z,145
2017-02-08T12:51:17.756Z,130
2017-02-08T12:52:27.301Z,125
2017-02-08T12:53:37.654Z,120
2017-02-08T12:54:48.433Z,110
2017-02-08T12:55:59.182Z,105
2017-02-08T12:57:09.928Z,100
2017-02-08T12:58:20.679Z,95
2017-02-08T12:59:31.411Z,90
2017-02-08T13:00:41.788Z,90
2017-02-08T13:01:52.543Z,90
2017-02-08T13:03:02.901Z,90
2017-02-08T13:04:13.646Z,90
2017-02-08T13:05:23.986Z,85
2017-02-08T13:06:34.330Z,85
2017-02-08T13:07:44.688Z,85
2017-02-08T13:08:55.451Z,85
2017-02-08T13:10:06.189Z,85
2017-02-08T13:11:16.205Z,80
2017-02-08T13:12:26.945Z,75
2017-02-08T13:13:37.712Z,70
2017-02-08T13:14:48.471Z,70
2017-02-08T13:15:59.225Z,70
2017-02-08T13:17:09.971Z,70
2017-02-08T13:18:20.719Z,75
2017-02-08T13:19:31.473Z,75
2017-02-08T13:20:42.215Z,85
2017-02-08T13:21:52.565Z,75
2017-02-08T13:23:03.320Z,75
2017-02-08T13:24:13.439Z,75
2017-02-08T13:25:24.200Z,70
2017-02-08T13:26:34.971Z,65
2017-02-08T13:27:45.711Z,65
2017-02-08T13:28:56.466Z,60
2017-02-08T13:30:06.815Z,60
2017-02-08T13:31:17.573Z,50
2017-02-08T13:32:28.319Z,45
2017-02-08T13:33:38.677Z,40
2017-02-08T13:34:49.024Z,40
2017-02-08T13:35:59.757Z,40
2017-02-08T13:37:10.508Z,45
2017-02-08T13:38:20.867Z,50
2017-02-08T13:39:31.213Z,50
2017-02-08T13:40:41.593Z,55
2017-02-08T13:41:52.348Z,55
2017-02-08T13:43:03.082Z,55
2017-02-08T13:44:14.056Z,50
2017-02-08T13:45:24.402Z,50
2017-02-08T13:46:35.147Z,50
2017-02-08T13:47:46.139Z,55
2017-02-08T13:48:56.884Z,55
2017-02-08T13:50:07.220Z,55
2017-02-08T13:51:17.578Z,55
2017-02-08T13:52:28.332Z,50
2017-02-08T13:53:38.292Z,50
2017-02-08T13:54:49.256Z,50
2017-02-08T13:55:59.604Z,45
2017-02-08T13:57:10.888Z,45
2017-02-08T13:58:21.642Z,45
2017-02-08T13:59:31.997Z,45
2017-02-08T14:00:42.345Z,45
2017-02-08T14:01:52.685Z,50
2017-02-08T14:03:03.042Z,50
2017-02-08T14:04:13.776Z,55
2017-02-08T14:05:24.533Z,55
2017-02-08T14:06:35.289Z,50
2017-02-08T14:07:45.642Z,50
2017-02-08T14:08:56.015Z,50
2017-02-08T14:10:06.780Z,50
2017-02-08T14:11:17.528Z,45
2017-02-08T14:12:28.291Z,45
2017-02-08T14:13:39.060Z,45
2017-02-08T14:14:49.810Z,45
2017-02-08T14:16:00.560Z,45
2017-02-08T14:17:11.311Z,45
2017-02-08T14:18:21.307Z,45
2017-02-08T14:19:32.059Z,40
2017-02-08T14:20:42.812Z,40
2017-02-08T14:21:53.552Z,35
2017-02-08T14:23:03.903Z,35
2017-02-08T14:24:14.652Z,35
2017-02-08T14:25:25.014Z,35
2017-02-08T14:26:35.764Z,35
2017-02-08T14:27:46.129Z,35
2017-02-08T14:28:56.880Z,30
2017-02-08T14:30:07.228Z,30
2017-02-08T14:31:17.584Z,30
2017-02-08T14:36:27.598Z,25
2017-02-08T14:41:51.687Z,20
2017-02-08T14:43:02.041Z,20
2017-02-08T14:44:12.799Z,20
2017-02-08T14:45:23.561Z,20
2017-02-08T14:46:34.310Z,20
2017-02-08T14:47:45.067Z,20
2017-02-08T14:48:55.812Z,20
2017-02-08T14:50:06.159Z,20
2017-02-08T14:51:16.518Z,15
2017-02-08T14:52:26.872Z,15
2017-02-08T14:53:37.632Z,15
2017-02-08T14:54:48.390Z,15
2017-02-08T14:55:59.138Z,15
2017-02-08T14:57:09.890Z,15
2017-02-08T14:58:20.629Z,10
2017-02-08T14:59:30.980Z,10
2017-02-08T15:00:41.720Z,10
2017-02-08T15:01:52.459Z,10
2017-02-08T15:03:02.829Z,10
2017-02-08T15:04:13.572Z,10
2017-02-08T15:05:23.942Z,10
2017-02-08T15:06:34.298Z,10
2017-02-08T15:07:45.045Z,10
2017-02-08T15:08:55.404Z,10
2017-02-08T15:10:06.153Z,10
2017-02-08T15:11:16.902Z,10
2017-02-08T15:12:27.648Z,10
2017-02-08T15:13:38.399Z,10
2017-02-08T15:14:48.730Z,10
2017-02-08T15:15:59.101Z,10
2017-02-08T15:17:09.479Z,10
2017-02-08T15:18:20.229Z,5
2017-02-08T15:19:30.976Z,5
2017-02-08T15:20:41.733Z,5
2017-02-08T15:21:52.102Z,5
2017-02-08T15:23:02.871Z,5
2017-02-08T15:24:13.653Z,5
2017-02-08T15:25:24.025Z,5
2017-02-08T15:26:34.779Z,5
2017-02-08T15:27:45.538Z,5
2017-02-08T15:28:55.908Z,5
2017-02-08T15:30:06.256Z,5
2017-02-08T15:31:17.007Z,5
2017-02-08T15:32:27.802Z,5
2017-02-08T15:33:38.551Z,5
2017-02-08T15:34:49.297Z,5
2017-02-08T15:35:59.272Z,5
2017-02-08T15:37:09.627Z,5
2017-02-08T15:38:19.992Z,5
2017-02-08T15:39:30.750Z,5
2017-02-08T15:40:41.493Z,5
2017-02-08T15:41:52.246Z,5
2017-02-08T15:43:03.008Z,0
2017-02-08T15:44:13.744Z,0
2017-02-08T15:45:24.493Z,0
2017-02-08T15:46:35.234Z,0
2017-02-08T15:47:45.188Z,0
2017-02-08T15:48:56.189Z,0
2017-02-08T15:50:07.002Z,0
2017-02-08T15:51:17.747Z,0
2017-02-08T15:52:28.491Z,0
2017-02-08T15:53:39.231Z,0
2017-02-08T15:54:49.988Z,0
2017-02-08T15:56:00.718Z,0
2017-02-08T15:57:11.481Z,0
2017-02-08T15:58:22.226Z,0
2017-02-08T15:59:32.585Z,0
2017-02-08T16:00:42.957Z,0
2017-02-08T16:01:53.704Z,0
2017-02-08T16:03:04.496Z,0
2017-02-08T16:04:14.879Z,0
2017-02-08T16:05:25.628Z,0
2017-02-08T16:06:36.381Z,0
2017-02-08T16:07:47.142Z,0
2017-02-08T16:08:57.894Z,0
2017-02-08T16:10:08.665Z,0
2017-02-08T16:11:19.031Z,0
2017-02-08T16:12:29.772Z,0
2017-02-08T16:13:40.519Z,0
2017-02-08T16:14:50.882Z,0
2017-02-08T16:16:01.652Z,0
2017-02-08T16:17:12.400Z,0
2017-02-08T16:18:23.166Z,0
2017-02-08T16:19:34.224Z,0
2017-02-08T16:20:44.582Z,0
2017-02-08T16:21:54.929Z,0
2017-02-08T16:23:05.275Z,0
2017-02-08T16:24:15.230Z,0
2017-02-08T16:25:25.977Z,0
2017-02-08T16:26:36.773Z,0
2017-02-08T16:27:47.534Z,0
2017-02-08T16:28:57.883Z,0
2017-02-08T16:30:08.224Z,0
2017-02-08T16:31:18.982Z,0
2017-02-08T16:32:29.797Z,0
2017-02-08T16:33:40.557Z,0
2017-02-08T16:34:50.915Z,0
2017-02-08T16:36:01.704Z,0
2017-02-08T16:37:12.461Z,0
2017-02-08T16:38:23.207Z,0
2017-02-08T16:39:33.970Z,0
2017-02-08T16:40:44.326Z,0
2017-02-08T16:41:55.072Z,0
2017-02-08T16:43:05.462Z,0
2017-02-08T16:44:16.225Z,0
2017-02-08T16:45:26.987Z,0
2017-02-08T16:46:37.749Z,0
2017-02-08T16:47:48.479Z,0
2017-02-08T16:48:59.228Z,0
2017-02-08T16:50:09.986Z,0
2017-02-08T16:51:20.331Z,0
2017-02-08T16:52:31.078Z,0
2017-02-08T16:53:41.433Z,0
2017-02-08T16:54:52.183Z,0
2017-02-08T16:56:02.937Z,0
2017-02-08T16:57:13.692Z,0
2017-02-08T16:58:24.447Z,0
2017-02-08T16:59:35.213Z,0
2017-02-08T17:00:45.854Z,0
2017-02-08T17:01:55.816Z,0
2017-02-08T17:03:06.563Z,0
2017-02-08T17:04:17.315Z,0
2017-02-08T17:05:27.656Z,0
2017-02-08T17:06:38.397Z,0
2017-02-08T17:07:49.158Z,0
2017-02-08T17:08:59.499Z,0
2017-02-08T17:10:10.258Z,0
2017-02-08T17:11:20.653Z,0
2017-02-08T17:12:31.412Z,0
2017-02-08T17:13:42.181Z,0
2017-02-08T17:14:52.951Z,0
2017-02-08T17:16:03.694Z,0
2017-02-08T17:17:14.437Z,0
2017-02-08T17:18:24.837Z,0
2017-02-08T17:19:35.195Z,0
2017-02-08T17:20:45.953Z,0
2017-02-08T17:21:56.718Z,0
2017-02-08T17:23:07.470Z,0
2017-02-08T17:24:17.818Z,0
2017-02-08T17:25:28.175Z,0
2017-02-08T17:26:38.948Z,0
2017-02-08T17:27:49.688Z,0
2017-02-08T17:29:00.424Z,0
2017-02-08T17:30:11.185Z,0
2017-02-08T17:31:21.954Z,0
2017-02-08T17:32:32.314Z,0
2017-02-08T17:33:43.058Z,0
2017-02-08T17:34:53.408Z,0
2017-02-08T17:36:03.807Z,0